Time;durP1;ratioP1;P1;durP2;ratioP2;P2;SDS_P1;SDS_P2;PMS_P1;PMS_P2;Temp;Humidity;BMP_temperature;BMP_pressure;BME280_temperature;BME280_humidity;BME280_pressure;Samples;Min_cycle;Max_cycle;Signal;HPM_P1;HPM_P2
2023/01/30 00:00:35;;;;;;;16.17;10.23;;;;;;;6.57;61.48;94866.50;5090772;28;20216;-50
2023/01/30 00:03:04;;;;;;;14.97;10.20;;;;;;;6.57;61.45;94872.38;5091162;28;20186;-48
2023/01/30 00:05:30;;;;;;;16.57;10.67;;;;;;;6.56;61.54;94869.94;5090538;28;20185;-50
2023/01/30 00:07:57;;;;;;;14.10;9.23;;;;;;;6.56;61.38;94857.25;5091056;28;20190;-49
2023/01/30 00:10:24;;;;;;;15.03;10.30;;;;;;;6.55;61.40;94848.81;5090695;28;20288;-52
2023/01/30 00:12:51;;;;;;;14.00;9.10;;;;;;;6.54;61.51;94855.63;5091258;28;20185;-48
2023/01/30 00:15:18;;;;;;;15.60;10.63;;;;;;;6.54;61.41;94850.53;5091208;28;20196;-48
2023/01/30 00:17:44;;;;;;;13.60;9.23;;;;;;;6.54;61.30;94854.81;5090488;28;20266;-50
2023/01/30 00:20:13;;;;;;;13.13;9.33;;;;;;;6.54;61.46;94857.34;5090443;28;20214;-50
2023/01/30 00:22:40;;;;;;;15.60;9.13;;;;;;;6.53;61.33;94853.19;5090417;28;20193;-48
2023/01/30 00:25:07;;;;;;;16.20;10.43;;;;;;;6.52;61.54;94854.94;5090458;28;20659;-50
2023/01/30 00:27:34;;;;;;;15.63;10.10;;;;;;;6.53;61.38;94859.09;5090360;28;20246;-47
2023/01/30 00:30:03;;;;;;;13.73;8.93;;;;;;;6.53;61.32;94865.91;5090613;28;20193;-47
2023/01/30 00:32:30;;;;;;;11.77;8.80;;;;;;;6.06;61.38;94788.00;5090504;28;20193;-48
2023/01/30 00:34:56;;;;;;;14.13;9.20;;;;;;;6.53;61.23;94869.25;5090599;28;20178;-48
2023/01/30 00:37:25;;;;;;;13.43;9.47;;;;;;;6.53;61.26;94859.09;5090122;28;20251;-49
2023/01/30 00:39:51;;;;;;;13.93;9.17;;;;;;;6.52;61.16;94854.13;5090435;28;20216;-50
2023/01/30 00:47:48;;;;;;;13.33;9.50;;;;;;;6.48;61.25;94843.38;5090287;28;20181;-48
2023/01/30 00:50:15;;;;;;;14.77;9.83;;;;;;;6.50;61.24;94840.72;5089551;28;20263;-48
2023/01/30 00:52:44;;;;;;;14.90;10.40;;;;;;;6.49;61.36;94831.47;5089639;28;20790;-50
2023/01/30 00:55:10;;;;;;;12.87;9.47;;;;;;;6.47;61.41;94836.66;5089965;28;20197;-49
2023/01/30 00:57:37;;;;;;;12.87;9.50;;;;;;;6.46;61.40;94835.03;5089807;28;20202;-49
2023/01/30 01:00:05;;;;;;;13.27;9.43;;;;;;;6.45;61.41;94832.59;5090025;28;20298;-49
2023/01/30 01:02:32;;;;;;;13.37;9.33;;;;;;;6.43;61.34;94836.97;5079057;28;20267;-49
2023/01/30 01:04:58;;;;;;;13.77;9.40;;;;;;;6.44;61.29;94839.44;5080953;28;20193;-47
2023/01/30 01:07:25;;;;;;;14.20;9.67;;;;;;;6.43;61.36;94837.81;5089513;28;20259;-48
2023/01/30 01:09:53;;;;;;;13.60;9.67;;;;;;;6.43;61.29;94832.72;5089592;28;20193;-49
2023/01/30 01:12:20;;;;;;;14.17;8.87;;;;;;;6.27;61.27;94815.22;5089849;28;20208;-48
2023/01/30 01:14:47;;;;;;;15.73;9.33;;;;;;;6.40;61.30;94822.78;5090033;28;20190;-49
2023/01/30 01:17:13;;;;;;;13.57;9.87;;;;;;;6.40;61.12;94821.97;5089871;28;20194;-48
2023/01/30 01:19:40;;;;;;;13.60;9.13;;;;;;;6.38;61.23;94813.63;5089089;28;20693;-48
2023/01/30 01:22:07;;;;;;;12.70;9.67;;;;;;;6.39;61.21;94822.88;5089705;28;20650;-49
2023/01/30 01:24:34;;;;;;;14.30;9.30;;;;;;;6.36;61.26;94813.75;5089686;28;20194;-49
2023/01/30 01:27:02;;;;;;;17.03;10.10;;;;;;;6.36;61.13;94812.94;5089744;28;20213;-49
2023/01/30 01:29:29;;;;;;;13.70;8.60;;;;;;;6.35;61.27;94816.38;5088489;28;20193;-48
2023/01/30 01:31:58;;;;;;;14.47;9.50;;;;;;;6.33;61.22;94808.88;5089602;28;20185;-49
2023/01/30 01:34:24;;;;;;;11.83;9.13;;;;;;;6.31;61.30;94800.59;5088904;28;20189;-49
2023/01/30 01:36:51;;;;;;;14.17;10.17;;;;;;;6.35;61.11;94809.59;5089478;28;20185;-49
2023/01/30 01:39:18;;;;;;;12.30;8.33;;;;;;;6.12;61.09;94768.03;5089433;28;20206;-49
2023/01/30 01:41:44;;;;;;;13.20;8.97;;;;;;;6.33;61.05;94803.00;5089607;28;20212;-49
2023/01/30 01:44:15;;;;;;;13.10;8.80;;;;;;;6.32;61.07;94809.00;5089171;28;20654;-49
2023/01/30 01:46:46;;;;;;;12.57;8.77;;;;;;;6.31;61.03;94810.75;5089130;28;20202;-48
2023/01/30 01:49:19;;;;;;;12.80;9.10;;;;;;;6.31;61.01;94809.94;5088882;28;20204;-48
2023/01/30 01:51:53;;;;;;;13.67;9.30;;;;;;;6.31;61.09;94809.94;5089746;28;20194;-48
2023/01/30 01:54:27;;;;;;;14.17;9.77;;;;;;;6.29;60.95;94804.94;5089372;28;20189;-48
2023/01/30 01:56:53;;;;;;;13.37;9.00;;;;;;;6.29;61.09;94807.47;5092167;28;20194;-51
2023/01/30 01:59:28;;;;;;;14.10;9.40;;;;;;;6.29;61.20;94810.81;5094999;28;20216;-49
2023/01/30 02:01:59;;;;;;;13.93;9.23;;;;;;;6.26;61.01;94800.06;5094932;28;20192;-48
2023/01/30 02:07:09;;;;;;;11.60;8.43;;;;;;;6.27;60.81;94812.69;5089278;28;20181;-54
2023/01/30 02:09:36;;;;;;;10.77;8.33;;;;;;;6.27;60.78;94812.69;5090637;28;20673;-50
2023/01/30 02:12:05;;;;;;;13.00;8.90;;;;;;;6.28;60.71;94813.50;5094068;28;20182;-55
2023/01/30 02:14:34;;;;;;;12.63;8.17;;;;;;;5.80;60.64;94732.22;5091720;28;20201;-50
2023/01/30 02:17:01;;;;;;;12.27;7.97;;;;;;;6.26;60.81;94811.06;5089938;28;20189;-49
2023/01/30 02:19:34;;;;;;;12.77;8.87;;;;;;;6.27;60.50;94809.34;5088751;28;20222;-51
2023/01/30 02:22:45;;;;;;;11.53;7.70;;;;;;;6.26;60.76;94813.59;5088892;28;20181;-49
2023/01/30 02:25:27;;;;;;;12.63;8.03;;;;;;;6.22;60.69;94809.66;5088812;28;20182;-49
2023/01/30 02:28:24;;;;;;;9.63;7.83;;;;;;;6.24;60.70;94812.88;5088864;28;20193;-50
2023/01/30 02:31:10;;;;;;;11.03;7.90;;;;;;;6.25;60.85;94811.16;5088917;28;20576;-51
2023/01/30 02:33:44;;;;;;;11.33;8.40;;;;;;;6.23;60.72;94806.19;5089092;28;20202;-49
2023/01/30 02:36:20;;;;;;;12.37;8.20;;;;;;;6.24;60.70;94807.00;5089052;28;20205;-49
2023/01/30 02:38:54;;;;;;;9.67;7.00;;;;;;;6.24;60.51;94812.88;5089215;28;20197;-49
2023/01/30 02:41:29;;;;;;;11.80;7.37;;;;;;;6.24;60.61;94807.00;5092546;28;20673;-48
2023/01/30 02:44:04;;;;;;;10.70;7.57;;;;;;;6.23;60.50;94800.31;5092692;28;20185;-50
2023/01/30 02:46:45;;;;;;;11.57;8.03;;;;;;;6.24;60.45;94804.47;5092171;28;20248;-51
2023/01/30 02:49:18;;;;;;;12.00;8.07;;;;;;;6.24;60.47;94800.19;5092867;28;20193;-49
2023/01/30 02:51:49;;;;;;;10.57;6.77;;;;;;;6.24;60.45;94796.84;5092529;28;20194;-52
2023/01/30 02:54:16;;;;;;;11.33;7.57;;;;;;;6.23;60.38;94801.13;5093293;28;20254;-49
2023/01/30 02:56:48;;;;;;;11.87;8.67;;;;;;;6.23;60.44;94802.84;5092902;28;20561;-50
2023/01/30 02:59:21;;;;;;;10.77;7.87;;;;;;;6.22;60.38;94806.31;5093136;28;20177;-48
2023/01/30 03:02:08;;;;;;;11.03;7.67;;;;;;;6.22;60.46;94803.78;5091513;28;20208;-48
2023/01/30 03:04:50;;;;;;;10.67;7.37;;;;;;;6.20;60.30;94806.41;5092165;28;20189;-49
2023/01/30 03:07:27;;;;;;;11.07;7.23;;;;;;;6.19;60.32;94801.44;5092366;28;20181;-50
2023/01/30 03:10:04;;;;;;;11.03;7.07;;;;;;;6.19;60.30;94798.91;5091776;28;20622;-50
2023/01/30 03:12:41;;;;;;;11.23;7.43;;;;;;;6.20;60.36;94803.88;5092607;28;20181;-48
2023/01/30 03:15:12;;;;;;;10.13;6.77;;;;;;;6.18;60.35;94787.94;5092005;28;20277;-50
2023/01/30 03:17:45;;;;;;;11.07;7.47;;;;;;;6.02;60.29;94762.81;5092165;28;20197;-48
2023/01/30 03:20:14;;;;;;;10.47;7.30;;;;;;;6.17;60.28;94783.75;5091597;28;20218;-49
2023/01/30 03:22:40;;;;;;;10.50;7.33;;;;;;;6.18;60.33;94785.41;5092004;28;20206;-49
2023/01/30 03:25:11;;;;;;;10.13;7.37;;;;;;;6.17;60.25;94773.59;5091593;28;20185;-50
2023/01/30 03:27:38;;;;;;;12.23;7.23;;;;;;;6.17;60.42;94772.78;5091697;28;20189;-50
2023/01/30 03:30:06;;;;;;;10.63;7.37;;;;;;;6.17;60.28;94768.53;5091430;28;20307;-51
2023/01/30 03:32:33;;;;;;;10.37;7.47;;;;;;;6.18;60.18;94764.28;5072796;28;20248;-50
2023/01/30 03:35:01;;;;;;;10.80;7.63;;;;;;;6.17;60.21;94765.19;5071417;28;20198;-48
2023/01/30 03:37:28;;;;;;;9.63;7.00;;;;;;;6.16;60.35;94761.84;5071472;28;20219;-49
2023/01/30 03:39:55;;;;;;;10.20;7.57;;;;;;;6.17;60.21;94755.84;5090556;28;20278;-51
2023/01/30 03:42:22;;;;;;;10.70;7.40;;;;;;;6.16;60.16;94759.28;5091732;28;20186;-49
2023/01/30 03:44:48;;;;;;;9.37;7.40;;;;;;;6.12;60.26;94760.44;5090954;28;20705;-51
2023/01/30 03:47:15;;;;;;;10.33;7.63;;;;;;;6.14;60.26;94760.34;5091817;28;20208;-51
2023/01/30 03:49:42;;;;;;;11.10;7.13;;;;;;;6.14;60.18;94760.34;5091277;28;20182;-48
2023/01/30 03:52:10;;;;;;;10.17;7.23;;;;;;;6.11;60.15;94758.00;5090913;28;20679;-50
2023/01/30 03:54:37;;;;;;;11.10;7.57;;;;;;;6.14;60.13;94756.06;5091231;28;20193;-49
2023/01/30 03:57:04;;;;;;;11.27;7.37;;;;;;;6.13;60.10;94757.00;5091446;28;20209;-50
2023/01/30 03:59:31;;;;;;;10.73;7.50;;;;;;;6.10;60.39;94757.19;5090986;28;20193;-50
2023/01/30 04:01:57;;;;;;;8.77;7.27;;;;;;;6.05;60.13;94750.84;5090860;28;20193;-49
2023/01/30 04:04:24;;;;;;;10.90;7.53;;;;;;;6.13;60.14;94763.78;5091597;28;20227;-52
2023/01/30 04:06:51;;;;;;;10.57;7.33;;;;;;;6.13;60.25;94751.91;5090868;28;20186;-48
2023/01/30 04:09:19;;;;;;;9.93;6.53;;;;;;;6.13;60.06;94751.09;5091255;28;20205;-48
2023/01/30 04:11:46;;;;;;;11.27;7.57;;;;;;;6.14;60.21;94750.19;5090624;28;20672;-49
2023/01/30 04:14:13;;;;;;;9.93;7.70;;;;;;;6.14;60.21;94750.19;5091038;28;20197;-51
2023/01/30 04:16:40;;;;;;;11.07;7.20;;;;;;;6.13;60.28;94749.38;5090360;28;20712;-49
2023/01/30 04:19:07;;;;;;;11.87;7.00;;;;;;;6.13;60.28;94756.16;5091041;28;20190;-50
2023/01/30 04:21:33;;;;;;;16.90;8.40;;;;;;;5.91;60.35;94723.84;5090815;28;20297;-49
2023/01/30 04:24:00;;;;;;;10.80;7.73;;;;;;;6.13;60.32;94751.91;5090834;28;20190;-50
2023/01/30 04:26:28;;;;;;;12.47;7.80;;;;;;;6.14;60.38;94751.00;5090614;28;20189;-51
2023/01/30 04:28:55;;;;;;;11.23;7.70;;;;;;;6.14;60.38;94757.81;5090105;28;20186;-48
2023/01/30 04:31:22;;;;;;;11.77;7.77;;;;;;;6.14;60.37;94756.06;5090489;28;20193;-48
2023/01/30 04:33:49;;;;;;;10.23;7.53;;;;;;;6.14;60.29;94752.72;5090539;28;20730;-52
2023/01/30 04:36:15;;;;;;;11.37;7.93;;;;;;;6.13;60.28;94753.63;5090868;28;20201;-49
2023/01/30 04:38:42;;;;;;;13.40;8.33;;;;;;;6.12;60.31;94749.47;5089915;28;20182;-50
2023/01/30 04:41:09;;;;;;;13.47;8.57;;;;;;;6.11;60.38;94751.19;5089989;28;20700;-48
2023/01/30 04:43:37;;;;;;;12.17;8.67;;;;;;;6.10;60.29;94747.06;5090204;28;20617;-49
2023/01/30 04:46:04;;;;;;;11.33;8.27;;;;;;;6.11;60.47;94750.41;5090115;28;20225;-48
2023/01/30 04:48:31;;;;;;;14.07;8.20;;;;;;;6.08;60.51;94748.06;5090452;28;20218;-49
2023/01/30 04:50:58;;;;;;;13.10;8.67;;;;;;;6.09;60.33;94732.75;5090348;28;20208;-49
2023/01/30 04:53:25;;;;;;;13.10;8.47;;;;;;;6.05;60.44;94722.91;5090181;28;20565;-49
2023/01/30 04:55:52;;;;;;;13.00;7.77;;;;;;;6.01;60.48;94720.59;5090132;28;20668;-49
2023/01/30 04:58:19;;;;;;;10.93;7.93;;;;;;;6.09;60.72;94724.28;5089957;28;20194;-49
2023/01/30 05:00:48;;;;;;;12.07;8.20;;;;;;;6.10;60.51;94731.00;5089926;28;20719;-47
2023/01/30 05:03:15;;;;;;;13.57;8.13;;;;;;;6.06;60.64;94725.34;5088083;28;20673;-51
2023/01/30 05:05:42;;;;;;;13.00;8.83;;;;;;;6.09;60.48;94731.91;5090051;28;20342;-47
2023/01/30 05:08:09;;;;;;;12.60;8.70;;;;;;;6.07;60.62;94726.16;5089982;28;20674;-48
2023/01/30 05:10:35;;;;;;;13.83;8.50;;;;;;;6.07;60.67;94726.16;5090269;28;20243;-49
2023/01/30 05:13:03;;;;;;;13.87;9.37;;;;;;;6.07;60.55;94726.16;5089564;28;20605;-50
2023/01/30 05:15:30;;;;;;;11.80;8.77;;;;;;;6.05;60.70;94712.78;5089820;28;20196;-49
2023/01/30 05:17:58;;;;;;;12.30;8.37;;;;;;;6.08;60.78;94722.69;5089863;28;20664;-49
2023/01/30 05:20:25;;;;;;;11.83;8.03;;;;;;;5.90;60.82;94705.28;5089379;28;20213;-49
2023/01/30 05:22:51;;;;;;;13.40;8.73;;;;;;;6.06;60.72;94732.94;5088979;28;20589;-49
2023/01/30 05:25:18;;;;;;;16.77;9.33;;;;;;;6.07;61.01;94733.75;5089471;28;20217;-49
2023/01/30 05:27:45;;;;;;;14.43;8.50;;;;;;;6.07;60.87;94733.75;5089458;28;20182;-48
2023/01/30 05:30:12;;;;;;;11.30;8.50;;;;;;;6.05;60.68;94744.03;5088538;28;20201;-49
2023/01/30 05:32:39;;;;;;;14.03;8.90;;;;;;;6.02;60.77;94744.25;5089784;28;20182;-48
2023/01/30 05:35:08;;;;;;;14.73;9.80;;;;;;;6.03;60.75;94738.25;5089399;28;20646;-49
2023/01/30 05:37:36;;;;;;;12.20;9.23;;;;;;;6.03;60.82;94738.25;5090015;28;20264;-49
2023/01/30 05:40:04;;;;;;;14.33;8.70;;;;;;;6.02;60.88;94739.16;5089166;28;20213;-49
2023/01/30 05:42:31;;;;;;;13.80;8.77;;;;;;;5.97;60.90;94734.41;5089682;28;20229;-49
2023/01/30 05:44:58;;;;;;;11.57;9.27;;;;;;;6.02;61.03;94736.63;5089385;28;20233;-48
2023/01/30 05:47:24;;;;;;;14.33;9.13;;;;;;;5.58;60.96;94666.97;5089051;28;20181;-49
2023/01/30 05:49:51;;;;;;;13.17;9.93;;;;;;;6.02;60.85;94739.16;5089503;28;20190;-48
2023/01/30 05:52:19;;;;;;;14.77;9.10;;;;;;;6.00;60.96;94735.91;5069265;28;20211;-50
2023/01/30 05:54:46;;;;;;;17.20;9.03;;;;;;;6.01;61.05;94751.06;5087043;28;20230;-50
2023/01/30 05:57:13;;;;;;;14.87;9.60;;;;;;;5.99;60.86;94745.25;5089744;28;20190;-51
2023/01/30 05:59:40;;;;;;;15.10;10.37;;;;;;;6.00;60.93;94746.91;5089436;28;20190;-48
2023/01/30 06:02:07;;;;;;;15.37;10.63;;;;;;;5.54;61.05;94673.19;5088957;28;20669;-51
2023/01/30 06:04:34;;;;;;;15.70;9.60;;;;;;;6.02;61.07;94749.31;5089557;28;20243;-51
2023/01/30 06:07:01;;;;;;;16.00;9.77;;;;;;;6.05;60.97;94746.56;5088785;28;20197;-49
2023/01/30 06:09:29;;;;;;;16.93;10.73;;;;;;;6.06;61.20;94755.00;5089070;28;20711;-49
2023/01/30 06:11:56;;;;;;;12.47;8.23;;;;;;;6.30;83.85;94732.91;5088688;28;20188;-46
2023/01/30 06:14:22;;;;;;;14.87;9.50;;;;;;;7.37;100.00;94737.66;5090200;28;20262;-48
2023/01/30 06:16:49;;;;;;;17.63;11.10;;;;;;;8.30;100.00;94730.34;5093616;28;20193;-48
2023/01/30 06:19:16;;;;;;;15.13;10.00;;;;;;;8.66;96.24;94738.53;5093487;28;20239;-49
2023/01/30 06:21:43;;;;;;;13.90;8.90;;;;;;;8.71;92.10;94743.25;5093018;28;20210;-49
2023/01/30 06:24:10;;;;;;;14.20;9.43;;;;;;;8.62;86.77;94734.63;5093212;28;20177;-50
2023/01/30 06:26:38;;;;;;;18.23;9.57;;;;;;;8.48;81.49;94730.63;5093197;28;20638;-48
2023/01/30 06:29:05;;;;;;;16.27;9.97;;;;;;;8.36;78.38;94733.34;5093089;28;20189;-49
2023/01/30 06:31:32;;;;;;;14.37;9.33;;;;;;;8.23;76.64;94739.41;5093102;28;20541;-49
2023/01/30 06:33:59;;;;;;;18.23;10.07;;;;;;;8.13;75.44;94737.72;5093186;28;20197;-50
2023/01/30 06:36:25;;;;;;;16.83;10.50;;;;;;;7.99;74.87;94731.19;5093759;28;20190;-49
2023/01/30 06:38:52;;;;;;;16.97;11.50;;;;;;;7.91;74.46;94733.53;5095986;28;20186;-49
2023/01/30 06:41:19;;;;;;;19.90;12.10;;;;;;;7.81;74.07;94748.69;5097245;28;20293;-49
2023/01/30 06:43:48;;;;;;;17.33;11.50;;;;;;;7.72;73.44;94739.22;5095994;28;20193;-49
2023/01/30 06:46:14;;;;;;;18.10;12.07;;;;;;;7.61;72.96;94744.34;5093021;28;20233;-50
2023/01/30 06:48:41;;;;;;;18.63;12.10;;;;;;;7.38;72.66;94721.47;5093178;28;20190;-49
2023/01/30 06:51:08;;;;;;;20.50;12.33;;;;;;;7.42;72.66;94750.03;5093188;28;20186;-48
2023/01/30 06:53:35;;;;;;;18.90;11.93;;;;;;;7.39;72.43;94757.91;5093260;28;20186;-48
2023/01/30 06:56:02;;;;;;;21.63;13.20;;;;;;;7.28;72.21;94743.44;5092533;28;20194;-49
2023/01/30 06:58:28;;;;;;;17.93;12.00;;;;;;;7.23;71.80;94753.97;5093213;28;20567;-49
2023/01/30 07:00:57;;;;;;;22.00;12.80;;;;;;;7.19;71.74;94761.94;5092631;28;20221;-51
2023/01/30 07:03:23;;;;;;;19.33;12.43;;;;;;;7.14;71.46;94753.84;5093126;28;20192;-49
2023/01/30 07:05:51;;;;;;;20.17;13.23;;;;;;;7.09;71.25;94756.75;5093499;28;20185;-49
2023/01/30 07:08:17;;;;;;;22.70;13.90;;;;;;;7.04;71.07;94758.84;5092897;28;20602;-49
2023/01/30 07:10:45;;;;;;;18.00;12.67;;;;;;;7.02;70.81;94763.22;5092465;28;20182;-49
2023/01/30 07:13:12;;;;;;;18.57;12.77;;;;;;;6.98;70.54;94761.81;5092960;28;20655;-48
2023/01/30 07:15:39;;;;;;;17.77;12.70;;;;;;;6.95;70.28;94767.94;5092281;28;20189;-49
2023/01/30 07:18:08;;;;;;;23.67;14.20;;;;;;;6.93;69.89;94768.97;5092747;28;20182;-49
2023/01/30 07:20:35;;;;;;;21.77;13.70;;;;;;;6.88;69.59;94766.78;5092124;28;20193;-49
2023/01/30 07:23:02;;;;;;;22.77;14.43;;;;;;;6.87;69.13;94767.72;5092400;28;20288;-48
2023/01/30 07:25:30;;;;;;;18.57;12.77;;;;;;;6.83;68.96;94762.97;5092376;28;20201;-47
2023/01/30 07:27:58;;;;;;;21.93;13.80;;;;;;;6.84;68.70;94762.03;5092009;28;20197;-49
2023/01/30 07:30:26;;;;;;;21.43;14.47;;;;;;;6.74;68.51;94751.75;5092616;28;20200;-48
2023/01/30 07:32:54;;;;;;;21.97;14.43;;;;;;;6.79;68.05;94770.00;5092686;28;20189;-49
2023/01/30 07:35:24;;;;;;;21.40;13.47;;;;;;;6.78;67.98;94773.47;5092584;28;20223;-49
2023/01/30 07:37:51;;;;;;;21.57;13.03;;;;;;;6.76;67.86;94773.56;5093410;28;20192;-49
2023/01/30 07:40:19;;;;;;;23.10;13.30;;;;;;;6.76;67.67;94772.75;5094595;28;20193;-50
2023/01/30 07:42:56;;;;;;;21.70;12.73;;;;;;;6.64;67.28;94764.28;5093897;28;20224;-49
2023/01/30 07:45:25;;;;;;;19.10;12.40;;;;;;;6.68;67.22;94768.22;5092288;28;20233;-51
2023/01/30 07:47:52;;;;;;;18.03;12.87;;;;;;;6.70;66.95;94773.22;5092007;28;20192;-51
2023/01/30 07:50:19;;;;;;;24.87;13.27;;;;;;;6.71;66.74;94774.84;5092182;28;20272;-51
2023/01/30 07:52:47;;;;;;;19.43;13.63;;;;;;;6.73;66.71;94776.31;5092046;28;20194;-49
2023/01/30 07:55:14;;;;;;;21.23;12.83;;;;;;;6.74;66.38;94767.00;5092114;28;20293;-50
2023/01/30 07:57:41;;;;;;;20.60;13.40;;;;;;;6.71;66.22;94767.22;5092293;28;20243;-50
2023/01/30 08:00:10;;;;;;;23.53;14.20;;;;;;;6.74;66.11;94755.09;5092187;28;20185;-50
2023/01/30 08:02:37;;;;;;;21.33;13.20;;;;;;;6.76;66.09;94753.22;5091590;28;20315;-52
2023/01/30 08:05:05;;;;;;;18.63;11.80;;;;;;;6.75;65.63;94746.53;5095616;28;20197;-60
2023/01/30 08:07:32;;;;;;;22.17;13.40;;;;;;;6.78;65.80;94742.97;5096356;28;20680;-51
2023/01/30 08:10:00;;;;;;;19.77;13.10;;;;;;;6.83;65.48;94745.97;5095033;28;20201;-50
2023/01/30 08:12:27;;;;;;;19.37;12.67;;;;;;;6.85;65.35;94746.66;5095855;28;20190;-50
2023/01/30 08:14:54;;;;;;;23.70;13.47;;;;;;;6.83;65.39;94738.34;5096311;28;20193;-54
2023/01/30 08:17:21;;;;;;;20.40;12.87;;;;;;;6.91;65.22;94745.38;5093970;28;20268;-50
2023/01/30 08:19:48;;;;;;;20.23;12.67;;;;;;;6.93;64.90;94741.81;5091601;28;20676;-48
2023/01/30 08:22:15;;;;;;;18.40;12.13;;;;;;;6.96;64.95;94748.44;5091230;28;20727;-50
2023/01/30 08:24:42;;;;;;;20.10;12.73;;;;;;;6.97;64.50;94740.66;5091243;28;20190;-49
2023/01/30 08:27:10;;;;;;;20.17;13.10;;;;;;;7.00;64.41;94740.44;5090984;28;20193;-48
2023/01/30 08:29:37;;;;;;;22.40;14.20;;;;;;;7.03;64.38;94740.19;5090515;28;20182;-49
2023/01/30 08:32:04;;;;;;;19.80;12.20;;;;;;;7.02;64.33;94728.41;5090806;28;20261;-49
2023/01/30 08:34:31;;;;;;;19.73;12.87;;;;;;;7.08;64.03;94727.16;5090708;28;20201;-49
2023/01/30 08:36:57;;;;;;;21.53;12.33;;;;;;;7.09;63.89;94727.97;5090692;28;20182;-49
2023/01/30 08:39:24;;;;;;;18.80;12.13;;;;;;;7.12;63.78;94725.97;5090548;28;20573;-49
2023/01/30 08:41:51;;;;;;;16.27;11.10;;;;;;;7.15;63.73;94727.50;5090988;28;20209;-51
2023/01/30 08:44:19;;;;;;;19.50;12.07;;;;;;;7.19;63.52;94724.59;5090348;28;20189;-48
2023/01/30 08:46:46;;;;;;;21.83;12.87;;;;;;;7.23;63.53;94720.09;5090651;28;20186;-48
2023/01/30 08:49:13;;;;;;;19.40;11.33;;;;;;;7.23;63.08;94710.72;5089957;28;20189;-50
2023/01/30 08:51:40;;;;;;;18.37;11.57;;;;;;;7.28;63.10;94721.34;5090600;28;20211;-49
2023/01/30 08:54:07;;;;;;;17.63;12.20;;;;;;;7.32;62.93;94716.03;5090721;28;20189;-50
2023/01/30 08:56:34;;;;;;;15.83;11.40;;;;;;;7.35;62.73;94720.91;5090368;28;20190;-49
2023/01/30 08:59:01;;;;;;;17.23;12.00;;;;;;;7.38;62.68;94721.47;5090358;28;20667;-48
2023/01/30 09:01:29;;;;;;;19.50;12.33;;;;;;;7.39;62.30;94712.13;5089955;28;20222;-48
2023/01/30 09:03:56;;;;;;;16.33;11.37;;;;;;;7.42;62.48;94711.84;5090005;28;20181;-50
2023/01/30 09:06:22;;;;;;;18.47;11.73;;;;;;;7.44;62.24;94704.94;5089933;28;20178;-50
2023/01/30 09:08:49;;;;;;;15.70;11.50;;;;;;;7.45;62.23;94697.16;5090344;28;20571;-48
2023/01/30 09:11:16;;;;;;;19.93;12.07;;;;;;;7.48;61.93;94696.94;5090298;28;20192;-48
2023/01/30 09:13:43;;;;;;;17.83;10.50;;;;;;;7.51;61.79;94698.41;5090130;28;20186;-49
2023/01/30 09:16:10;;;;;;;17.83;10.70;;;;;;;7.33;61.78;94669.31;5089901;28;20216;-50
2023/01/30 09:18:40;;;;;;;15.27;9.90;;;;;;;7.51;61.63;94693.34;5090172;28;20576;-49
2023/01/30 09:21:07;;;;;;;16.97;10.70;;;;;;;7.56;61.57;94691.25;5089464;28;20225;-49
2023/01/30 09:23:34;;;;;;;18.10;11.37;;;;;;;7.57;61.61;94687.78;5090125;28;20196;-51
2023/01/30 09:26:01;;;;;;;15.47;10.37;;;;;;;7.60;61.30;94691.81;5089725;28;20186;-50
2023/01/30 09:28:28;;;;;;;14.37;10.10;;;;;;;7.62;61.02;94692.50;5090000;28;20193;-50
2023/01/30 09:30:57;;;;;;;16.33;10.93;;;;;;;7.64;61.25;94686.41;5089890;28;20190;-49
2023/01/30 09:33:23;;;;;;;14.50;10.00;;;;;;;7.67;61.06;94687.88;5089518;28;20193;-48
2023/01/30 09:35:52;;;;;;;16.37;10.73;;;;;;;7.68;61.36;94690.28;5089790;28;20201;-50
2023/01/30 09:38:20;;;;;;;15.70;10.33;;;;;;;6.78;60.90;94543.00;5089790;28;20695;-51
2023/01/30 09:40:56;;;;;;;17.23;10.67;;;;;;;7.71;60.88;94681.63;5090648;28;20221;-49
2023/01/30 09:43:40;;;;;;;15.93;11.53;;;;;;;7.66;60.80;94678.63;5090763;28;20244;-50
2023/01/30 09:46:17;;;;;;;14.50;10.50;;;;;;;7.71;60.73;94676.53;5089401;28;20236;-49
2023/01/30 09:48:53;;;;;;;15.27;10.80;;;;;;;7.68;60.63;94667.38;5089690;28;20189;-51
2023/01/30 09:51:45;;;;;;;15.30;9.67;;;;;;;7.73;60.69;94674.69;5089798;28;20189;-49
2023/01/30 09:54:23;;;;;;;12.10;9.07;;;;;;;7.75;60.63;94667.72;5086517;28;20650;-48
2023/01/30 09:57:08;;;;;;;14.00;9.50;;;;;;;7.76;60.50;94665.03;5089696;28;20284;-50
2023/01/30 09:59:45;;;;;;;15.30;10.57;;;;;;;7.76;60.37;94665.03;5089386;28;20209;-49
2023/01/30 10:02:41;;;;;;;15.17;10.60;;;;;;;7.73;60.50;94655.13;5089324;28;20231;-49
2023/01/30 10:05:08;;;;;;;14.13;9.97;;;;;;;7.76;60.32;94647.22;5089379;28;20191;-48
2023/01/30 10:07:53;;;;;;;12.97;9.50;;;;;;;7.80;60.45;94653.69;5089649;28;20247;-48
2023/01/30 10:10:37;;;;;;;16.50;10.03;;;;;;;7.83;60.45;94646.75;5089406;28;20193;-47
2023/01/30 10:13:15;;;;;;;13.03;9.50;;;;;;;7.87;60.42;94632.84;5089063;28;20251;-49
2023/01/30 10:15:52;;;;;;;14.50;9.07;;;;;;;7.90;60.00;94628.31;5089210;28;20285;-50
2023/01/30 10:19:01;;;;;;;16.27;10.23;;;;;;;7.92;60.06;94625.66;5089131;28;20193;-49
2023/01/30 10:21:40;;;;;;;12.83;9.60;;;;;;;7.93;60.04;94612.78;5026491;28;20629;-49
2023/01/30 10:24:31;;;;;;;13.63;9.90;;;;;;;7.96;59.82;94621.94;5026849;28;20191;-49
2023/01/30 10:26:58;;;;;;;15.40;10.33;;;;;;;7.95;59.82;94617.78;5026737;28;20187;-49
2023/01/30 10:29:31;;;;;;;16.63;11.43;;;;;;;7.94;59.74;94605.94;5027093;28;20225;-51
2023/01/30 10:32:03;;;;;;;12.57;8.93;;;;;;;7.96;59.41;94609.19;5026849;28;20215;-49
2023/01/30 10:34:34;;;;;;;17.60;10.50;;;;;;;7.95;59.58;94603.28;5026765;28;20195;-50
2023/01/30 10:37:08;;;;;;;13.77;9.57;;;;;;;7.92;59.59;94588.25;5026699;28;20188;-49
2023/01/30 10:39:45;;;;;;;16.57;10.80;;;;;;;7.94;59.57;94586.38;5026891;28;20736;-49
2023/01/30 10:42:13;;;;;;;15.70;10.63;;;;;;;7.93;59.34;94579.69;5026529;28;20215;-49
2023/01/30 10:44:41;;;;;;;15.73;10.33;;;;;;;7.97;59.58;94575.97;5026367;28;20295;-50
2023/01/30 10:47:25;;;;;;;17.10;10.03;;;;;;;7.98;59.42;94571.66;5026771;28;20226;-49
2023/01/30 10:49:54;;;;;;;14.27;10.40;;;;;;;7.97;59.10;94564.97;5026683;28;20219;-48
2023/01/30 10:52:42;;;;;;;13.07;8.57;;;;;;;7.96;58.85;94551.44;5026903;28;20210;-49
2023/01/30 10:55:19;;;;;;;14.90;9.50;;;;;;;7.97;58.69;94544.59;5026204;28;20188;-48
2023/01/30 10:57:57;;;;;;;15.60;9.60;;;;;;;8.07;58.49;94549.75;5077749;28;20266;-51
2023/01/30 11:00:29;;;;;;;16.90;10.37;;;;;;;8.10;58.48;94539.31;5089417;28;20200;-48
2023/01/30 11:03:09;;;;;;;15.10;9.80;;;;;;;8.02;58.64;94517.00;5092896;28;20225;-51
2023/01/30 11:05:44;;;;;;;16.87;10.13;;;;;;;8.15;57.98;94535.44;5093455;28;20239;-50
2023/01/30 11:08:21;;;;;;;15.30;9.77;;;;;;;8.17;58.40;94531.03;5095115;28;20200;-50
2023/01/30 11:10:50;;;;;;;14.87;9.33;;;;;;;8.22;57.96;94525.56;5096663;28;20185;-50
2023/01/30 11:13:19;;;;;;;16.90;10.30;;;;;;;8.25;57.84;94513.38;5095904;28;20797;-49
2023/01/30 11:15:49;;;;;;;13.53;10.10;;;;;;;8.30;58.07;94505.34;5092620;28;20201;-48
2023/01/30 11:18:17;;;;;;;13.33;9.13;;;;;;;8.26;57.94;94494.63;5092141;28;20202;-50
2023/01/30 11:20:51;;;;;;;17.20;10.80;;;;;;;8.37;57.84;94498.03;5092539;28;20565;-49
2023/01/30 11:23:26;;;;;;;19.00;10.97;;;;;;;8.41;57.77;94501.94;5092231;28;20221;-49
2023/01/30 11:25:57;;;;;;;16.77;10.63;;;;;;;8.43;57.70;94493.22;5092668;28;20182;-49
2023/01/30 11:28:25;;;;;;;14.30;10.50;;;;;;;8.47;57.59;94486.13;5091882;28;20185;-49
2023/01/30 11:30:56;;;;;;;17.73;10.00;;;;;;;8.49;57.59;94477.41;5091803;28;20182;-49
2023/01/30 11:33:31;;;;;;;16.70;11.37;;;;;;;8.52;57.44;94472.06;5091907;28;20185;-48
2023/01/30 11:36:00;;;;;;;17.97;11.13;;;;;;;8.54;57.37;94470.16;5091760;28;20196;-48
2023/01/30 11:38:29;;;;;;;15.33;10.33;;;;;;;8.58;57.26;94469.91;5091284;28;20194;-48
2023/01/30 11:41:16;;;;;;;15.80;11.13;;;;;;;8.60;57.23;94455.31;5091821;28;20195;-48
2023/01/30 11:43:43;;;;;;;15.87;11.23;;;;;;;8.57;56.94;94437.72;5092071;28;20305;-49
2023/01/30 11:46:13;;;;;;;15.77;10.43;;;;;;;8.72;56.96;94454.22;5091917;28;20224;-47
2023/01/30 11:48:46;;;;;;;15.47;9.70;;;;;;;8.66;56.97;94425.00;5091655;28;20707;-48